Weather at Aerodromo Goncalves Lobato (Viseu Airport)

Public forecast

Using degrees Celsius for public forecast. Weather courtesy of forecast.io.

Closest aviation weather report (METAR) to Aerodromo Goncalves Lobato (Viseu Airport)

Report is more than 2 hours old.

Closest report is Ovar Air Base, 36.2 nm (67.1 km) WNW. Retrieved 2022/01/18 18:00 UTC (2 hours ago):

LPOV 181800Z VRB01KT CAVOK 10/08 Q1029

Closest aviation forecast (TAF) to Aerodromo Goncalves Lobato (Viseu Airport)

Forecast is more than 12 hours old.

Closest forecast is Covilhã Hospital Helipad, 32.9 nm (61.0 km) SSE. Retrieved 2010/03/02 21:54 UTC (12 years ago):

TAF TLPCL 022154Z 0300/0400 10018KT 9999 SCT026 SCT300